Marion, Montana
Current Conditions -  °F | °C
As of 1:55 PM on Sunday 21 Dec 2014 (Local Time) from KGPI Reporting Station
Broken Clouds Broken Clouds  
Wind Chill: 39°   Ceiling: 8000
Heat Index: 44°   Visibility: 10mi
Dew Point: 30°   Wind: 10mph
Humidity: 58%   Direction: 250°WSW
Pressure: 29.63"   Gusts: NA
Location:  48.11°N, 114.66°W
Report Text: KGPI 212055Z 25009KT 10SM FEW050 BKN080 07/M01 A2963 RMK AO2 SLP048 T00671011 51021
Loading
Personal Weather Stations






























Interactive Weather Map New forecast layout! Learn more

10-Day Weather Forecast

Advertisements
Track Severe Weather on mobile